createdAt,value
2019-03-01T00:01:34.759Z,8.63
2019-03-01T00:04:18.230Z,6.60
2019-03-01T00:07:17.750Z,9.53
2019-03-01T00:10:12.187Z,9.10
2019-03-01T00:13:21.845Z,11.43
2019-03-01T00:16:43.218Z,9.57
2019-03-01T00:19:54.149Z,6.13
2019-03-01T00:23:01.952Z,10.03
2019-03-01T00:26:01.969Z,11.00
2019-03-01T00:29:05.963Z,7.83
2019-03-01T00:31:45.136Z,8.00
2019-03-01T00:34:49.381Z,7.77
2019-03-01T00:38:01.445Z,7.70
2019-03-01T00:40:49.397Z,3.57
2019-03-01T00:43:35.911Z,8.33
2019-03-01T00:46:03.301Z,7.00
2019-03-01T00:48:30.472Z,9.57
2019-03-01T00:50:58.228Z,11.70
2019-03-01T00:53:25.469Z,7.67
2019-03-01T00:55:52.867Z,6.83
2019-03-01T00:58:20.244Z,6.27
2019-03-01T01:00:48.396Z,7.87
2019-03-01T01:03:15.649Z,5.40
2019-03-01T01:05:43.079Z,6.80
2019-03-01T01:08:10.434Z,6.20
2019-03-01T01:10:38.062Z,8.93
2019-03-01T01:13:05.419Z,5.30
2019-03-01T01:15:32.719Z,3.13
2019-03-01T01:18:00.203Z,4.93
2019-03-01T01:20:27.315Z,7.20
2019-03-01T01:22:54.689Z,7.33
2019-03-01T01:25:22.526Z,3.87
2019-03-01T01:27:50.598Z,3.47
2019-03-01T01:30:18.026Z,7.80
2019-03-01T01:32:45.161Z,4.70
2019-03-01T01:35:12.388Z,5.87
2019-03-01T01:37:39.968Z,4.70
2019-03-01T01:40:07.690Z,5.30
2019-03-01T01:42:34.903Z,6.57
2019-03-01T01:45:02.047Z,6.93
2019-03-01T01:47:29.272Z,7.77
2019-03-01T01:49:56.678Z,3.67
2019-03-01T01:52:23.941Z,5.40
2019-03-01T01:54:51.150Z,6.13
2019-03-01T01:57:18.502Z,4.67
2019-03-01T01:59:45.739Z,6.17
2019-03-01T02:02:13.144Z,5.10
2019-03-01T02:04:40.542Z,5.60
2019-03-01T02:07:07.920Z,4.17
2019-03-01T02:09:35.450Z,6.37
2019-03-01T02:12:03.066Z,4.23
2019-03-01T02:14:30.250Z,5.80
2019-03-01T02:16:57.904Z,5.37
2019-03-01T02:19:25.150Z,5.33
2019-03-01T02:21:52.481Z,4.90
2019-03-01T02:24:19.699Z,4.90
2019-03-01T02:26:47.035Z,6.17
2019-03-01T02:29:14.319Z,6.83
2019-03-01T02:31:56.940Z,8.57
2019-03-01T02:34:24.303Z,5.87
2019-03-01T02:36:51.603Z,5.07
2019-03-01T02:39:18.757Z,4.90
2019-03-01T02:41:46.143Z,9.17
2019-03-01T02:44:14.472Z,4.80
2019-03-01T02:46:41.848Z,4.23
2019-03-01T02:49:09.063Z,3.93
2019-03-01T02:51:36.602Z,4.30
2019-03-01T02:54:03.964Z,6.87
2019-03-01T02:56:31.270Z,5.87
2019-03-01T02:58:58.498Z,5.53
2019-03-01T03:01:26.126Z,5.10
2019-03-01T03:03:53.522Z,6.03
2019-03-01T03:06:43.267Z,3.27
2019-03-01T03:09:11.903Z,3.10
2019-03-01T03:11:39.381Z,2.10
2019-03-01T03:14:08.669Z,3.37
2019-03-01T03:16:36.235Z,4.97
2019-03-01T03:19:03.546Z,5.53
2019-03-01T03:21:30.903Z,4.63
2019-03-01T03:23:58.269Z,2.40
2019-03-01T03:26:25.553Z,2.77
2019-03-01T03:28:53.101Z,4.97
2019-03-01T03:31:20.374Z,2.87
2019-03-01T03:33:47.575Z,2.63
2019-03-01T03:36:14.824Z,3.70
2019-03-01T03:38:41.995Z,2.73
2019-03-01T03:41:09.250Z,2.00
2019-03-01T03:43:36.486Z,1.10
2019-03-01T03:46:03.803Z,2.00
2019-03-01T03:48:31.151Z,4.90
2019-03-01T03:50:58.521Z,2.70
2019-03-01T03:53:25.774Z,1.53
2019-03-01T03:55:53.146Z,2.23
2019-03-01T03:58:20.514Z,2.40
2019-03-01T04:00:47.952Z,1.63
2019-03-01T04:03:15.212Z,1.13
2019-03-01T04:05:42.608Z,1.17
2019-03-01T04:08:09.994Z,0.67
2019-03-01T04:10:37.453Z,1.20
2019-03-01T04:13:05.740Z,1.30
2019-03-01T04:15:33.160Z,1.73
2019-03-01T04:18:00.272Z,1.53
2019-03-01T04:20:27.611Z,0.73
2019-03-01T04:22:54.985Z,0.53
2019-03-01T04:25:22.372Z,2.73
2019-03-01T04:27:49.593Z,3.20
2019-03-01T04:30:16.864Z,1.57
2019-03-01T04:32:44.313Z,0.57
2019-03-01T04:35:12.111Z,1.17
2019-03-01T04:37:40.442Z,0.30
2019-03-01T04:40:09.163Z,1.77
2019-03-01T04:42:36.598Z,3.60
2019-03-01T04:45:04.201Z,0.67
2019-03-01T04:47:31.557Z,4.10
2019-03-01T04:49:58.684Z,7.03
2019-03-01T04:52:35.824Z,3.83
2019-03-01T04:55:04.947Z,1.47
2019-03-01T04:57:32.304Z,1.40
2019-03-01T04:59:59.551Z,1.53
2019-03-01T05:02:26.886Z,1.53
2019-03-01T05:04:54.099Z,2.67
2019-03-01T05:07:21.743Z,1.10
2019-03-01T05:09:49.151Z,2.03
2019-03-01T05:12:16.525Z,2.83
2019-03-01T05:14:43.898Z,2.60
2019-03-01T05:17:11.160Z,1.50
2019-03-01T05:19:38.528Z,2.77
2019-03-01T05:22:05.730Z,2.80
2019-03-01T05:24:32.931Z,4.57
2019-03-01T05:27:00.189Z,4.47
2019-03-01T05:29:27.317Z,2.40
2019-03-01T05:31:54.448Z,5.83
2019-03-01T05:34:21.682Z,2.13
2019-03-01T05:36:48.822Z,3.17
2019-03-01T05:39:16.150Z,2.90
2019-03-01T05:41:43.440Z,6.53
2019-03-01T05:44:10.854Z,4.50
2019-03-01T05:46:37.958Z,3.97
2019-03-01T05:49:05.196Z,6.63
2019-03-01T05:51:33.556Z,3.17
2019-03-01T05:54:00.981Z,5.67
2019-03-01T05:56:28.397Z,8.57
2019-03-01T05:59:16.653Z,3.80
2019-03-01T06:02:25.819Z,3.93
2019-03-01T06:05:02.525Z,7.67
2019-03-01T06:08:20.595Z,6.20
2019-03-01T06:11:05.229Z,4.10
2019-03-01T06:14:02.796Z,3.00
2019-03-01T06:16:50.354Z,5.37
2019-03-01T06:19:45.250Z,7.20
2019-03-01T06:22:36.527Z,10.40
2019-03-01T06:25:42.807Z,3.77
2019-03-01T06:28:57.938Z,3.60
2019-03-01T06:32:03.191Z,5.20
2019-03-01T06:34:55.749Z,3.73
2019-03-01T06:38:19.498Z,5.80
2019-03-01T06:41:33.179Z,4.07
2019-03-01T06:45:00.893Z,4.80
2019-03-01T06:47:41.830Z,5.50
2019-03-01T06:50:15.484Z,2.63
2019-03-01T06:52:43.816Z,5.33
2019-03-01T06:55:43.255Z,5.37
2019-03-01T06:58:22.283Z,5.57
2019-03-01T07:00:53.252Z,4.93
2019-03-01T07:03:20.570Z,9.40
2019-03-01T07:05:47.970Z,5.17
2019-03-01T07:08:15.087Z,2.43
2019-03-01T07:10:42.489Z,1.57
2019-03-01T07:13:09.605Z,1.97
2019-03-01T07:15:37.011Z,0.97
2019-03-01T07:18:04.215Z,2.20
2019-03-01T07:20:31.441Z,4.43
2019-03-01T07:22:58.741Z,3.93
2019-03-01T07:25:25.892Z,0.23
2019-03-01T07:27:53.027Z,1.10
2019-03-01T07:30:20.435Z,0.37
2019-03-01T07:32:47.825Z,3.97
2019-03-01T07:35:15.911Z,4.53
2019-03-01T07:37:43.039Z,3.33
2019-03-01T07:40:10.913Z,2.73
2019-03-01T07:42:38.348Z,1.40
2019-03-01T07:45:06.779Z,1.63
2019-03-01T07:47:34.315Z,3.00
2019-03-01T07:50:01.867Z,4.37
2019-03-01T07:52:29.178Z,1.33
2019-03-01T07:54:56.530Z,2.77
2019-03-01T07:57:23.913Z,1.63
2019-03-01T07:59:51.309Z,2.50
2019-03-01T08:02:18.676Z,4.57
2019-03-01T08:04:45.929Z,3.93
2019-03-01T08:07:13.301Z,1.33
2019-03-01T08:09:41.298Z,2.20
2019-03-01T08:12:09.896Z,2.47
2019-03-01T08:14:37.120Z,0.77
2019-03-01T08:17:04.622Z,5.93
2019-03-01T08:19:32.144Z,4.70
2019-03-01T08:21:59.283Z,1.40
2019-03-01T08:24:26.541Z,2.23
2019-03-01T08:26:53.770Z,1.70
2019-03-01T08:29:21.100Z,1.73
2019-03-01T08:31:48.216Z,6.23
2019-03-01T08:34:17.755Z,1.40
2019-03-01T08:36:44.766Z,1.17
2019-03-01T08:39:11.903Z,0.77
2019-03-01T08:41:39.202Z,1.20
2019-03-01T08:44:06.481Z,1.77
2019-03-01T08:46:33.845Z,3.03
2019-03-01T08:49:01.644Z,1.03
2019-03-01T08:51:29.143Z,2.17
2019-03-01T08:53:57.351Z,2.00
2019-03-01T08:56:26.371Z,2.07
2019-03-01T08:58:53.669Z,0.70
2019-03-01T09:01:21.003Z,0.57
2019-03-01T09:03:52.906Z,0.80
2019-03-01T09:06:20.116Z,0.60
2019-03-01T09:08:47.291Z,1.67
2019-03-01T09:11:14.538Z,1.57
2019-03-01T09:13:41.970Z,0.47
2019-03-01T09:16:09.207Z,0.70
2019-03-01T09:18:36.453Z,0.87
2019-03-01T09:21:05.839Z,0.63
2019-03-01T09:23:32.869Z,0.23
2019-03-01T09:26:00.224Z,1.17
2019-03-01T09:28:27.457Z,0.50
2019-03-01T09:30:55.025Z,1.00
2019-03-01T09:33:22.952Z,0.30
2019-03-01T09:36:17.854Z,2.60
2019-03-01T09:38:45.307Z,0.50
2019-03-01T09:41:12.758Z,0.63
2019-03-01T09:43:41.065Z,0.97
2019-03-01T09:46:08.358Z,3.20
2019-03-01T09:48:36.064Z,0.43
2019-03-01T09:51:03.278Z,1.67
2019-03-01T09:53:33.984Z,1.33
2019-03-01T09:56:00.227Z,2.10
2019-03-01T09:58:28.006Z,0.30
2019-03-01T10:00:59.410Z,1.10
2019-03-01T10:03:26.800Z,0.57
2019-03-01T10:05:54.177Z,4.17
2019-03-01T10:08:21.570Z,0.40
2019-03-01T10:10:49.259Z,0.60
2019-03-01T10:13:16.609Z,0.60
2019-03-01T10:15:44.070Z,0.20
2019-03-01T10:18:11.304Z,0.27
2019-03-01T10:20:39.999Z,0.23
2019-03-01T10:23:07.126Z,0.50
2019-03-01T10:25:34.441Z,0.23
2019-03-01T10:28:01.786Z,0.40
2019-03-01T10:30:29.029Z,0.50
2019-03-01T10:32:56.719Z,4.23
2019-03-01T10:35:24.112Z,0.53
2019-03-01T10:37:53.018Z,3.07
2019-03-01T10:40:21.206Z,0.97
2019-03-01T10:42:48.686Z,0.37
2019-03-01T10:45:18.339Z,1.03
2019-03-01T10:47:45.618Z,0.73
2019-03-01T10:50:13.552Z,1.17
2019-03-01T10:52:40.911Z,7.30
2019-03-01T10:55:10.310Z,1.47
2019-03-01T10:57:38.633Z,1.57
2019-03-01T11:00:14.784Z,0.93
2019-03-01T11:02:42.144Z,1.60
2019-03-01T11:05:09.449Z,1.40
2019-03-01T11:07:36.775Z,0.83
2019-03-01T11:10:05.486Z,1.70
2019-03-01T11:12:32.764Z,1.30
2019-03-01T11:14:59.741Z,0.93
2019-03-01T11:17:26.833Z,1.10
2019-03-01T11:19:54.172Z,1.60
2019-03-01T11:22:21.459Z,0.97
2019-03-01T11:24:48.939Z,1.07
2019-03-01T11:27:16.220Z,0.87
2019-03-01T11:29:43.799Z,1.47
2019-03-01T11:32:12.244Z,1.93
2019-03-01T11:34:39.461Z,1.43
2019-03-01T11:37:06.635Z,2.27
2019-03-01T11:39:34.113Z,1.30
2019-03-01T11:42:01.348Z,1.20
2019-03-01T11:44:28.577Z,1.30
2019-03-01T11:46:56.249Z,0.80
2019-03-01T11:49:23.367Z,3.80
2019-03-01T11:51:50.747Z,2.30
2019-03-01T11:54:18.241Z,3.13
2019-03-01T11:56:45.508Z,1.53
2019-03-01T11:59:12.612Z,1.33
2019-03-01T12:01:39.984Z,2.03
2019-03-01T12:04:07.196Z,1.60
2019-03-01T12:06:34.578Z,3.33
2019-03-01T12:09:01.920Z,1.23
2019-03-01T12:11:31.064Z,1.63
2019-03-01T12:13:58.162Z,1.07
2019-03-01T12:16:25.367Z,0.93
2019-03-01T12:18:52.622Z,1.10
2019-03-01T12:21:19.963Z,1.70
2019-03-01T12:23:47.359Z,1.23
2019-03-01T12:26:14.716Z,0.70
2019-03-01T12:28:41.995Z,0.80
2019-03-01T12:31:09.551Z,0.47
2019-03-01T12:33:37.122Z,1.27
2019-03-01T12:36:04.408Z,2.20
2019-03-01T12:38:31.684Z,1.30
2019-03-01T12:40:59.011Z,1.50
2019-03-01T12:43:26.258Z,2.93
2019-03-01T12:45:53.604Z,2.20
2019-03-01T12:48:21.423Z,1.57
2019-03-01T12:50:48.687Z,1.80
2019-03-01T12:53:15.984Z,1.00
2019-03-01T12:55:43.211Z,0.50
2019-03-01T12:58:19.197Z,0.90
2019-03-01T13:00:39.933Z,1.23
2019-03-01T13:03:09.033Z,0.70
2019-03-01T13:05:36.323Z,1.40
2019-03-01T13:08:03.673Z,1.50
2019-03-01T13:10:31.101Z,1.37
2019-03-01T13:12:58.747Z,2.33
2019-03-01T13:15:27.513Z,3.67
2019-03-01T13:17:54.864Z,4.43
2019-03-01T13:20:22.089Z,4.67
2019-03-01T13:22:49.566Z,4.20
2019-03-01T13:25:16.846Z,7.77
2019-03-01T13:27:44.410Z,5.90
2019-03-01T13:30:16.588Z,5.57
2019-03-01T13:32:44.004Z,6.53
2019-03-01T13:35:12.555Z,9.53
2019-03-01T13:37:40.271Z,6.80
2019-03-01T13:40:09.051Z,6.97
2019-03-01T13:42:36.714Z,7.17
2019-03-01T13:45:04.445Z,6.47
2019-03-01T13:47:32.038Z,4.67
2019-03-01T13:49:59.549Z,8.00
2019-03-01T13:52:29.932Z,5.10
2019-03-01T13:54:56.132Z,4.47
2019-03-01T13:57:23.485Z,4.03
2019-03-01T13:59:50.838Z,7.17
2019-03-01T14:02:18.042Z,5.77
2019-03-01T14:04:45.783Z,7.93
2019-03-01T14:07:13.146Z,6.67
2019-03-01T14:09:40.345Z,6.00
2019-03-01T14:12:07.710Z,7.40
2019-03-01T14:14:35.091Z,8.20
2019-03-01T14:17:02.449Z,7.80
2019-03-01T14:19:29.835Z,10.40
2019-03-01T14:21:57.074Z,9.93
2019-03-01T14:24:25.958Z,7.93
2019-03-01T14:26:54.029Z,8.63
2019-03-01T14:29:22.240Z,8.80
2019-03-01T14:31:49.630Z,11.87
2019-03-01T14:34:16.921Z,13.07
2019-03-01T14:36:44.172Z,11.43
2019-03-01T14:39:16.221Z,12.40
2019-03-01T14:41:43.454Z,10.90
2019-03-01T14:44:10.667Z,17.23
2019-03-01T14:46:37.914Z,13.20
2019-03-01T14:49:05.601Z,11.07
2019-03-01T14:51:33.063Z,15.47
2019-03-01T14:54:00.620Z,17.07
2019-03-01T14:56:34.709Z,13.57
2019-03-01T14:59:13.079Z,13.90
2019-03-01T15:02:05.084Z,18.33
2019-03-01T15:04:33.436Z,18.93
2019-03-01T15:07:00.806Z,15.70
2019-03-01T15:09:28.210Z,14.77
2019-03-01T15:11:55.642Z,12.87
2019-03-01T15:14:23.099Z,14.67
2019-03-01T15:16:50.633Z,15.07
2019-03-01T15:19:17.901Z,17.47
2019-03-01T15:21:45.145Z,11.77
2019-03-01T15:24:12.496Z,16.07
2019-03-01T15:26:40.341Z,15.30
2019-03-01T15:29:07.683Z,18.27
2019-03-01T15:31:35.057Z,12.90
2019-03-01T15:34:02.301Z,14.50
2019-03-01T15:36:29.541Z,15.20
2019-03-01T15:38:56.923Z,15.00
2019-03-01T15:41:24.423Z,12.77
2019-03-01T15:43:51.825Z,13.00
2019-03-01T15:46:19.214Z,12.83
2019-03-01T15:48:46.463Z,12.67
2019-03-01T15:51:14.112Z,90.77
2019-03-01T15:53:41.440Z,16.87
2019-03-01T15:56:08.733Z,15.37
2019-03-01T15:58:36.343Z,14.20
2019-03-01T16:01:11.789Z,14.60
2019-03-01T16:03:39.282Z,14.63
2019-03-01T16:06:10.243Z,16.53
2019-03-01T16:08:36.953Z,19.50
2019-03-01T16:11:04.947Z,20.33
2019-03-01T16:13:34.213Z,21.23
2019-03-01T16:16:01.452Z,22.20
2019-03-01T16:18:28.644Z,21.10
2019-03-01T16:20:56.176Z,20.57
2019-03-01T16:23:23.234Z,19.33
2019-03-01T16:25:53.172Z,21.57
2019-03-01T16:28:19.817Z,19.10
2019-03-01T16:30:49.708Z,23.37
2019-03-01T16:33:16.507Z,19.93
2019-03-01T16:35:43.770Z,24.37
2019-03-01T16:38:12.572Z,38.93
2019-03-01T16:40:39.686Z,32.30
2019-03-01T16:43:06.824Z,24.70
2019-03-01T16:45:36.222Z,32.60
2019-03-01T16:48:03.522Z,45.93
2019-03-01T16:50:30.897Z,110.63
2019-03-01T16:52:58.174Z,76.43
2019-03-01T16:55:27.805Z,54.70
2019-03-01T16:58:05.979Z,42.67
2019-03-01T17:00:24.930Z,92.33
2019-03-01T17:02:52.376Z,32.93
2019-03-01T17:05:19.735Z,29.93
2019-03-01T17:07:46.987Z,34.77
2019-03-01T17:10:15.544Z,27.47
2019-03-01T17:12:43.139Z,21.70
2019-03-01T17:15:14.665Z,21.23
2019-03-01T17:17:42.695Z,23.60
2019-03-01T17:20:09.957Z,23.60
2019-03-01T17:22:37.345Z,21.20
2019-03-01T17:25:05.049Z,18.00
2019-03-01T17:27:32.518Z,17.53
2019-03-01T17:29:59.967Z,21.13
2019-03-01T17:32:27.313Z,19.37
2019-03-01T17:34:55.116Z,19.27
2019-03-01T17:37:25.874Z,19.10
2019-03-01T17:39:53.179Z,21.10
2019-03-01T17:42:21.549Z,25.00
2019-03-01T17:44:49.064Z,19.57
2019-03-01T17:47:16.790Z,19.27
2019-03-01T17:49:44.037Z,17.83
2019-03-01T17:52:12.426Z,17.83
2019-03-01T17:54:39.709Z,21.57
2019-03-01T17:57:07.064Z,21.73
2019-03-01T17:59:34.570Z,22.07
2019-03-01T18:02:02.154Z,26.63
2019-03-01T18:04:29.888Z,21.30
2019-03-01T18:06:57.061Z,20.00
2019-03-01T18:09:24.486Z,20.30
2019-03-01T18:11:52.231Z,32.37
2019-03-01T18:14:19.549Z,59.37
2019-03-01T18:16:47.247Z,29.10
2019-03-01T18:19:14.513Z,21.07
2019-03-01T18:21:46.397Z,15.20
2019-03-01T18:24:14.382Z,15.27
2019-03-01T18:26:42.372Z,15.67
2019-03-01T18:29:09.517Z,15.47
2019-03-01T18:31:37.887Z,15.57
2019-03-01T18:34:05.307Z,14.67
2019-03-01T18:36:32.621Z,18.93
2019-03-01T18:39:00.234Z,17.90
2019-03-01T18:41:29.451Z,19.13
2019-03-01T18:43:56.831Z,19.43
2019-03-01T18:46:24.230Z,34.73
2019-03-01T18:48:51.685Z,37.80
2019-03-01T18:51:19.189Z,24.33
2019-03-01T18:53:46.507Z,20.37
2019-03-01T18:56:13.763Z,23.50
2019-03-01T18:58:41.065Z,24.63
2019-03-01T19:01:10.952Z,23.57
2019-03-01T19:03:40.203Z,27.03
2019-03-01T19:06:08.474Z,29.17
2019-03-01T19:08:36.432Z,31.63
2019-03-01T19:11:04.272Z,37.40
2019-03-01T19:13:31.785Z,36.93
2019-03-01T19:16:00.261Z,42.60
2019-03-01T19:18:27.534Z,37.40
2019-03-01T19:20:54.832Z,48.10
2019-03-01T19:23:22.366Z,45.10
2019-03-01T19:25:49.760Z,46.47
2019-03-01T19:28:17.162Z,49.87
2019-03-01T19:30:45.860Z,47.80
2019-03-01T19:33:13.948Z,52.27
2019-03-01T19:35:41.463Z,51.47
2019-03-01T19:38:08.973Z,56.33
2019-03-01T19:40:36.523Z,58.60
2019-03-01T19:43:06.936Z,54.87
2019-03-01T19:45:33.128Z,54.87
2019-03-01T19:48:03.238Z,53.43
2019-03-01T19:50:31.157Z,55.57
2019-03-01T19:52:58.397Z,57.90
2019-03-01T19:55:25.796Z,56.23
2019-03-01T19:57:53.399Z,56.87
2019-03-01T20:00:22.056Z,54.47
2019-03-01T20:02:49.509Z,55.33
2019-03-01T20:05:19.040Z,70.27
2019-03-01T20:07:48.259Z,63.70
2019-03-01T20:10:16.062Z,62.27
2019-03-01T20:12:43.909Z,53.07
2019-03-01T20:15:14.114Z,58.90
2019-03-01T20:17:44.362Z,51.43
2019-03-01T20:20:11.778Z,54.83
2019-03-01T20:22:39.189Z,58.80
2019-03-01T20:25:08.569Z,52.40
2019-03-01T20:27:39.038Z,51.17
2019-03-01T20:30:08.875Z,52.27
2019-03-01T20:32:36.236Z,52.43
2019-03-01T20:35:05.250Z,48.83
2019-03-01T20:37:33.088Z,48.73
2019-03-01T20:40:00.576Z,52.87
2019-03-01T20:42:27.809Z,48.17
2019-03-01T20:44:55.226Z,49.30
2019-03-01T20:47:23.075Z,45.93
2019-03-01T20:49:50.470Z,45.93
2019-03-01T20:52:18.126Z,45.83
2019-03-01T20:54:45.359Z,52.77
2019-03-01T20:57:14.994Z,50.37
2019-03-01T20:59:42.248Z,48.70
2019-03-01T21:02:12.769Z,50.83
2019-03-01T21:04:41.536Z,45.63
2019-03-01T21:07:12.401Z,48.30
2019-03-01T21:09:40.517Z,49.43
2019-03-01T21:12:07.906Z,44.97
2019-03-01T21:14:35.280Z,51.30
2019-03-01T21:17:03.367Z,45.40
2019-03-01T21:19:30.761Z,49.87
2019-03-01T21:21:58.282Z,53.23
2019-03-01T21:24:26.731Z,49.83
2019-03-01T21:26:55.328Z,45.63
2019-03-01T21:29:22.618Z,52.57
2019-03-01T21:31:50.494Z,51.43
2019-03-01T21:34:17.632Z,54.53
2019-03-01T21:36:45.005Z,55.63
2019-03-01T21:39:12.230Z,49.17
2019-03-01T21:41:41.600Z,49.70
2019-03-01T21:44:10.628Z,50.27
2019-03-01T21:46:37.783Z,48.40
2019-03-01T21:49:05.153Z,52.17
2019-03-01T21:51:34.818Z,55.50
2019-03-01T21:54:02.079Z,44.90
2019-03-01T21:56:29.985Z,48.33
2019-03-01T21:58:57.539Z,51.80
2019-03-01T22:01:24.955Z,50.07
2019-03-01T22:03:52.225Z,54.20
2019-03-01T22:06:20.647Z,60.87
2019-03-01T22:08:49.723Z,49.27
2019-03-01T22:11:20.852Z,46.63
2019-03-01T22:13:48.252Z,53.63
2019-03-01T22:16:15.473Z,55.97
2019-03-01T22:18:43.139Z,50.70
2019-03-01T22:21:10.481Z,57.53
2019-03-01T22:23:37.558Z,50.53
2019-03-01T22:26:04.975Z,56.10
2019-03-01T22:28:36.214Z,50.37
2019-03-01T22:31:02.474Z,58.53
2019-03-01T22:33:30.153Z,49.37
2019-03-01T22:35:57.551Z,59.53
2019-03-01T22:38:25.088Z,54.83
2019-03-01T22:40:54.218Z,56.50
2019-03-01T22:43:22.536Z,53.53
2019-03-01T22:45:50.573Z,55.03
2019-03-01T22:48:17.953Z,47.57
2019-03-01T22:50:45.367Z,55.10
2019-03-01T22:53:12.790Z,51.90
2019-03-01T22:55:40.193Z,47.43
2019-03-01T22:58:07.501Z,50.67
2019-03-01T23:01:12.246Z,54.87
2019-03-01T23:03:41.235Z,50.47
2019-03-01T23:06:11.678Z,56.07
2019-03-01T23:08:37.660Z,48.67
2019-03-01T23:11:05.970Z,48.73
2019-03-01T23:13:33.162Z,43.60
2019-03-01T23:16:00.615Z,45.93
2019-03-01T23:18:28.032Z,50.17
2019-03-01T23:20:57.688Z,54.97
2019-03-01T23:23:24.819Z,57.23
2019-03-01T23:25:52.603Z,43.37
2019-03-01T23:28:19.972Z,51.33
2019-03-01T23:30:47.481Z,45.97
2019-03-01T23:33:16.205Z,51.67
2019-03-01T23:35:43.371Z,50.83
2019-03-01T23:38:11.550Z,48.00
2019-03-01T23:40:40.089Z,47.70
2019-03-01T23:43:07.491Z,44.50
2019-03-01T23:45:34.734Z,48.63
2019-03-01T23:48:02.098Z,54.00
2019-03-01T23:50:31.536Z,54.60
2019-03-01T23:53:00.083Z,50.60
2019-03-01T23:55:27.474Z,54.17
2019-03-01T23:57:59.264Z,55.07
